sensor_id;sensor_type;location;lat;lon;timestamp;P1;durP1;ratioP1;P2;durP2;ratioP2
62037;SDS011;47991;42.974;12.082;2023-03-20T20:57:50;3.30;;;1.30;;
62037;SDS011;47991;42.974;12.082;2023-03-20T21:00:20;2.30;;;1.10;;
62037;SDS011;47991;42.974;12.082;2023-03-20T21:02:48;2.00;;;1.10;;
62037;SDS011;47991;42.974;12.082;2023-03-20T21:05:23;1.50;;;1.00;;
62037;SDS011;47991;42.974;12.082;2023-03-20T21:07:52;1.70;;;1.10;;
62037;SDS011;47991;42.974;12.082;2023-03-20T21:10:20;2.20;;;1.20;;
62037;SDS011;47991;42.974;12.082;2023-03-20T21:12:48;3.40;;;1.50;;
62037;SDS011;47991;42.974;12.082;2023-03-20T21:15:17;2.80;;;1.30;;
62037;SDS011;47991;42.974;12.082;2023-03-20T21:17:44;2.60;;;1.00;;
62037;SDS011;47991;42.974;12.082;2023-03-20T21:20:13;2.50;;;1.10;;
62037;SDS011;47991;42.974;12.082;2023-03-20T21:22:39;1.20;;;1.10;;
62037;SDS011;47991;42.974;12.082;2023-03-20T21:25:06;2.70;;;1.20;;
62037;SDS011;47991;42.974;12.082;2023-03-20T21:27:34;2.30;;;1.20;;
62037;SDS011;47991;42.974;12.082;2023-03-20T21:30:04;1.50;;;1.20;;
62037;SDS011;47991;42.974;12.082;2023-03-20T21:32:33;2.00;;;1.30;;
62037;SDS011;47991;42.974;12.082;2023-03-20T21:37:36;1.90;;;1.40;;
62037;SDS011;47991;42.974;12.082;2023-03-20T21:42:34;3.30;;;1.20;;
62037;SDS011;47991;42.974;12.082;2023-03-20T21:45:03;2.30;;;1.30;;
62037;SDS011;47991;42.974;12.082;2023-03-20T21:47:30;1.70;;;1.30;;
62037;SDS011;47991;42.974;12.082;2023-03-20T21:49:59;3.90;;;2.00;;
62037;SDS011;47991;42.974;12.082;2023-03-20T21:52:25;3.70;;;1.90;;
62037;SDS011;47991;42.974;12.082;2023-03-20T21:54:51;3.10;;;1.60;;
62037;SDS011;47991;42.974;12.082;2023-03-20T21:57:19;1.80;;;1.40;;
62037;SDS011;47991;42.974;12.082;2023-03-20T21:59:46;2.10;;;1.20;;
62037;SDS011;47991;42.974;12.082;2023-03-20T22:02:13;4.20;;;1.80;;
62037;SDS011;47991;42.974;12.082;2023-03-20T22:04:41;3.40;;;2.10;;
62037;SDS011;47991;42.974;12.082;2023-03-20T22:07:10;3.90;;;2.00;;
62037;SDS011;47991;42.974;12.082;2023-03-20T22:09:40;5.80;;;2.60;;
62037;SDS011;47991;42.974;12.082;2023-03-20T22:12:06;3.70;;;1.90;;
62037;SDS011;47991;42.974;12.082;2023-03-20T22:14:35;4.20;;;2.10;;
62037;SDS011;47991;42.974;12.082;2023-03-20T22:17:04;4.00;;;2.10;;
62037;SDS011;47991;42.974;12.082;2023-03-20T22:19:30;2.80;;;1.50;;
62037;SDS011;47991;42.974;12.082;2023-03-20T22:21:57;3.20;;;1.50;;
62037;SDS011;47991;42.974;12.082;2023-03-20T22:24:23;2.60;;;1.40;;
62037;SDS011;47991;42.974;12.082;2023-03-20T22:26:49;1.70;;;1.30;;
62037;SDS011;47991;42.974;12.082;2023-03-20T22:29:20;2.50;;;1.50;;
62037;SDS011;47991;42.974;12.082;2023-03-20T22:31:47;4.40;;;1.60;;
62037;SDS011;47991;42.974;12.082;2023-03-20T22:34:17;2.60;;;1.70;;
62037;SDS011;47991;42.974;12.082;2023-03-20T22:36:44;2.80;;;1.50;;
62037;SDS011;47991;42.974;12.082;2023-03-20T22:39:11;2.90;;;1.50;;
62037;SDS011;47991;42.974;12.082;2023-03-20T22:41:38;2.30;;;1.20;;
62037;SDS011;47991;42.974;12.082;2023-03-20T22:44:08;2.50;;;1.60;;
62037;SDS011;47991;42.974;12.082;2023-03-20T22:46:36;3.70;;;1.80;;
62037;SDS011;47991;42.974;12.082;2023-03-20T22:49:03;3.30;;;1.60;;
62037;SDS011;47991;42.974;12.082;2023-03-20T22:51:31;2.90;;;1.50;;
62037;SDS011;47991;42.974;12.082;2023-03-20T22:53:58;2.90;;;1.60;;
62037;SDS011;47991;42.974;12.082;2023-03-20T22:56:28;3.30;;;1.60;;
62037;SDS011;47991;42.974;12.082;2023-03-20T22:58:55;1.90;;;1.40;;
62037;SDS011;47991;42.974;12.082;2023-03-20T23:01:22;1.90;;;1.40;;
62037;SDS011;47991;42.974;12.082;2023-03-20T23:03:52;3.00;;;1.60;;
62037;SDS011;47991;42.974;12.082;2023-03-20T23:06:22;3.60;;;1.70;;
62037;SDS011;47991;42.974;12.082;2023-03-20T23:08:51;2.70;;;1.50;;
62037;SDS011;47991;42.974;12.082;2023-03-20T23:11:21;4.00;;;1.70;;
62037;SDS011;47991;42.974;12.082;2023-03-20T23:13:50;2.90;;;1.50;;
62037;SDS011;47991;42.974;12.082;2023-03-20T23:16:17;2.50;;;1.40;;
62037;SDS011;47991;42.974;12.082;2023-03-20T23:18:43;3.30;;;1.70;;
62037;SDS011;47991;42.974;12.082;2023-03-20T23:21:10;2.80;;;1.50;;
62037;SDS011;47991;42.974;12.082;2023-03-20T23:23:38;1.80;;;1.10;;
62037;SDS011;47991;42.974;12.082;2023-03-20T23:26:07;2.40;;;1.40;;
62037;SDS011;47991;42.974;12.082;2023-03-20T23:28:43;2.70;;;1.40;;
62037;SDS011;47991;42.974;12.082;2023-03-20T23:31:14;1.80;;;1.30;;
62037;SDS011;47991;42.974;12.082;2023-03-20T23:33:45;2.70;;;1.50;;
62037;SDS011;47991;42.974;12.082;2023-03-20T23:36:14;2.60;;;1.30;;
62037;SDS011;47991;42.974;12.082;2023-03-20T23:38:43;4.70;;;1.20;;
62037;SDS011;47991;42.974;12.082;2023-03-20T23:41:17;2.20;;;1.40;;
62037;SDS011;47991;42.974;12.082;2023-03-20T23:43:45;2.50;;;1.60;;
62037;SDS011;47991;42.974;12.082;2023-03-20T23:46:11;3.20;;;1.60;;
62037;SDS011;47991;42.974;12.082;2023-03-20T23:48:38;2.90;;;1.40;;
62037;SDS011;47991;42.974;12.082;2023-03-20T23:51:05;4.00;;;1.70;;
62037;SDS011;47991;42.974;12.082;2023-03-20T23:53:34;3.90;;;1.60;;
62037;SDS011;47991;42.974;12.082;2023-03-20T23:56:05;3.40;;;1.70;;
62037;SDS011;47991;42.974;12.082;2023-03-20T23:58:32;4.30;;;1.80;;
